createdAt,value
2023-05-14T00:01:51.888Z,40.00
2023-05-14T00:04:18.837Z,39.50
2023-05-14T00:06:46.518Z,40.50
2023-05-14T00:09:13.411Z,40.50
2023-05-14T00:11:40.280Z,40.00
2023-05-14T00:14:07.189Z,41.00
2023-05-14T00:16:34.105Z,41.00
2023-05-14T00:19:01.151Z,40.00
2023-05-14T00:21:28.097Z,40.50
2023-05-14T00:23:54.989Z,41.00
2023-05-14T00:26:22.874Z,40.00
2023-05-14T00:28:50.075Z,40.00
2023-05-14T00:31:16.983Z,40.00
2023-05-14T00:33:43.920Z,39.00
2023-05-14T00:36:10.969Z,41.00
2023-05-14T00:38:38.008Z,39.00
2023-05-14T00:41:05.041Z,39.00
2023-05-14T00:43:31.942Z,40.00
2023-05-14T00:45:59.352Z,40.50
2023-05-14T00:48:26.482Z,40.50
2023-05-14T00:50:53.467Z,40.00
2023-05-14T00:53:20.860Z,40.00
2023-05-14T00:55:50.049Z,39.00
2023-05-14T00:58:18.271Z,38.50
2023-05-14T01:00:45.650Z,40.00
2023-05-14T01:03:12.641Z,40.00
2023-05-14T01:05:51.356Z,40.00
2023-05-14T01:08:27.327Z,39.00
2023-05-14T01:11:11.570Z,38.00
2023-05-14T01:13:58.086Z,39.75
2023-05-14T01:16:27.380Z,39.50
2023-05-14T01:18:56.716Z,40.00
2023-05-14T01:21:37.772Z,39.00
2023-05-14T01:24:05.027Z,38.25
2023-05-14T01:26:32.002Z,38.00
2023-05-14T01:29:16.006Z,37.50
2023-05-14T01:31:45.585Z,39.50
2023-05-14T01:34:14.308Z,39.50
2023-05-14T01:36:42.303Z,40.00
2023-05-14T01:39:10.521Z,40.00
2023-05-14T01:41:38.812Z,39.25
2023-05-14T01:44:06.188Z,39.00
2023-05-14T01:46:33.141Z,39.00
2023-05-14T01:49:00.805Z,39.00
2023-05-14T01:51:27.786Z,40.00
2023-05-14T01:53:54.642Z,40.00
2023-05-14T01:56:23.257Z,39.00
2023-05-14T01:58:50.380Z,39.50
2023-05-14T02:01:17.365Z,40.25
2023-05-14T02:03:44.348Z,40.00
2023-05-14T02:06:11.195Z,40.00
2023-05-14T02:08:38.086Z,39.50
2023-05-14T02:11:05.033Z,39.00
2023-05-14T02:13:32.089Z,39.75
2023-05-14T02:15:59.022Z,40.75
2023-05-14T02:18:25.899Z,39.00
2023-05-14T02:20:52.851Z,39.75
2023-05-14T02:23:25.673Z,40.00
2023-05-14T02:25:58.193Z,39.00
2023-05-14T02:28:25.053Z,39.00
2023-05-14T02:30:52.002Z,40.00
2023-05-14T02:33:18.981Z,39.50
2023-05-14T02:35:45.985Z,39.50
2023-05-14T02:38:13.473Z,44.00
2023-05-14T02:40:40.555Z,42.00
2023-05-14T02:43:07.388Z,40.50
2023-05-14T02:45:36.145Z,42.00
2023-05-14T02:48:03.176Z,39.50
2023-05-14T02:50:30.793Z,40.00
2023-05-14T02:52:57.801Z,39.50
2023-05-14T02:55:24.829Z,40.00
2023-05-14T02:57:51.724Z,40.50
2023-05-14T03:00:19.225Z,41.00
2023-05-14T03:02:46.636Z,43.25
2023-05-14T03:05:14.120Z,42.50
2023-05-14T03:07:41.057Z,43.00
2023-05-14T03:10:08.410Z,43.00
2023-05-14T03:12:35.343Z,44.00
2023-05-14T03:15:02.237Z,44.00
2023-05-14T03:17:29.632Z,44.00
2023-05-14T03:19:58.490Z,44.00
2023-05-14T03:22:27.039Z,43.00
2023-05-14T03:24:53.959Z,45.50
2023-05-14T03:27:20.853Z,47.00
2023-05-14T03:29:47.822Z,46.50
2023-05-14T03:32:15.044Z,45.00
2023-05-14T03:34:42.327Z,45.00
2023-05-14T03:37:09.172Z,45.00
2023-05-14T03:39:36.131Z,45.00
2023-05-14T03:42:05.294Z,45.00
2023-05-14T03:44:32.234Z,44.00
2023-05-14T03:46:59.095Z,45.00
2023-05-14T03:49:26.472Z,45.00
2023-05-14T03:51:53.445Z,46.50
2023-05-14T03:54:20.525Z,47.00
2023-05-14T03:56:47.462Z,45.00
2023-05-14T03:59:14.389Z,45.75
2023-05-14T04:01:41.262Z,46.00
2023-05-14T04:04:08.256Z,46.00
2023-05-14T04:06:35.472Z,46.50
2023-05-14T04:09:03.343Z,46.00
2023-05-14T04:11:30.200Z,46.00
2023-05-14T04:13:57.205Z,45.00
2023-05-14T04:16:24.276Z,44.00
2023-05-14T04:18:51.271Z,44.00
2023-05-14T04:21:18.237Z,43.00
2023-05-14T04:23:45.164Z,44.00
2023-05-14T04:26:12.061Z,44.00
2023-05-14T04:28:39.059Z,44.25
2023-05-14T04:31:05.954Z,45.75
2023-05-14T04:33:32.925Z,45.50
2023-05-14T04:35:59.818Z,45.00
2023-05-14T04:38:26.804Z,45.00
2023-05-14T04:40:53.699Z,45.00
2023-05-14T04:43:20.704Z,45.00
2023-05-14T04:45:47.578Z,44.00
2023-05-14T04:48:14.553Z,45.00
2023-05-14T04:50:41.458Z,46.00
2023-05-14T04:53:08.541Z,46.00
2023-05-14T04:55:35.500Z,45.00
2023-05-14T04:58:02.898Z,43.00
2023-05-14T05:00:29.989Z,42.50
2023-05-14T05:03:15.332Z,43.50
2023-05-14T05:05:42.545Z,44.75
2023-05-14T05:08:09.463Z,44.00
2023-05-14T05:10:36.440Z,44.50
2023-05-14T05:13:22.092Z,44.00
2023-05-14T05:15:49.062Z,44.00
2023-05-14T05:18:16.272Z,44.00
2023-05-14T05:20:43.261Z,45.00
2023-05-14T05:23:10.291Z,44.00
2023-05-14T05:25:37.380Z,44.00
2023-05-14T05:28:22.881Z,45.00
2023-05-14T05:30:49.887Z,44.00
2023-05-14T05:33:16.800Z,43.00
2023-05-14T05:35:43.832Z,42.00
2023-05-14T05:38:10.692Z,43.00
2023-05-14T05:40:37.819Z,44.00
2023-05-14T05:43:04.960Z,44.00
2023-05-14T05:45:32.366Z,44.00
2023-05-14T05:48:00.774Z,44.50
2023-05-14T05:50:28.328Z,45.00
2023-05-14T05:52:56.483Z,45.00
2023-05-14T05:55:24.234Z,44.00
2023-05-14T05:57:51.219Z,43.00
2023-05-14T06:00:18.699Z,42.00
2023-05-14T06:02:46.939Z,43.00
2023-05-14T06:05:14.101Z,43.25
2023-05-14T06:07:41.005Z,44.50
2023-05-14T06:10:08.566Z,46.25
2023-05-14T06:12:35.472Z,46.00
2023-05-14T06:15:21.505Z,44.00
2023-05-14T06:17:57.910Z,42.75
2023-05-14T06:20:25.294Z,43.50
2023-05-14T06:22:52.978Z,43.00
2023-05-14T06:25:28.619Z,42.00
2023-05-14T06:27:57.469Z,42.00
2023-05-14T06:30:25.141Z,46.00
2023-05-14T06:32:52.662Z,45.00
2023-05-14T06:35:24.374Z,44.00
2023-05-14T06:37:51.918Z,42.00
2023-05-14T06:40:19.353Z,42.00
2023-05-14T06:42:46.912Z,41.50
2023-05-14T06:45:19.095Z,43.00
2023-05-14T06:47:57.239Z,42.00
2023-05-14T06:50:25.028Z,42.00
2023-05-14T06:52:52.126Z,41.00
2023-05-14T06:55:19.374Z,40.00
2023-05-14T06:57:47.132Z,41.75
2023-05-14T07:00:18.534Z,41.00
2023-05-14T07:02:45.668Z,41.00
2023-05-14T07:05:12.654Z,42.00
2023-05-14T07:07:42.938Z,42.00
2023-05-14T07:10:18.098Z,42.00
2023-05-14T07:12:45.030Z,42.00
2023-05-14T07:15:12.015Z,42.00
2023-05-14T07:17:39.063Z,43.00
2023-05-14T07:20:06.737Z,43.00
2023-05-14T07:22:33.662Z,43.00
2023-05-14T07:25:00.698Z,41.50
2023-05-14T07:27:27.709Z,42.00
2023-05-14T07:29:54.622Z,42.00
2023-05-14T07:32:21.798Z,42.00
2023-05-14T07:34:48.950Z,42.00
2023-05-14T07:37:16.498Z,42.00
2023-05-14T07:39:43.983Z,41.00
2023-05-14T07:42:15.171Z,41.00
2023-05-14T07:44:47.078Z,41.25
2023-05-14T07:47:14.517Z,41.00
2023-05-14T07:49:41.673Z,40.50
2023-05-14T07:52:08.584Z,41.00
2023-05-14T07:54:35.541Z,42.00
2023-05-14T07:57:02.496Z,42.00
2023-05-14T07:59:29.393Z,43.25
2023-05-14T08:01:56.221Z,43.00
2023-05-14T08:04:23.470Z,43.00
2023-05-14T08:06:50.492Z,43.25
2023-05-14T08:09:17.330Z,43.00
2023-05-14T08:11:44.282Z,42.25
2023-05-14T08:14:11.355Z,42.00
2023-05-14T08:16:38.264Z,41.00
2023-05-14T08:19:05.213Z,42.00
2023-05-14T08:21:32.133Z,46.00
2023-05-14T08:23:59.173Z,43.00
2023-05-14T08:26:26.064Z,43.50
2023-05-14T08:28:55.138Z,42.00
2023-05-14T08:31:22.805Z,42.00
2023-05-14T08:33:49.828Z,42.00
2023-05-14T08:36:16.854Z,43.00
2023-05-14T08:38:43.751Z,42.00
2023-05-14T08:41:11.216Z,42.00
2023-05-14T08:44:01.208Z,42.00
2023-05-14T08:46:30.673Z,42.00
2023-05-14T08:49:06.157Z,42.00
2023-05-14T08:51:33.771Z,42.75
2023-05-14T08:54:03.022Z,51.00
2023-05-14T08:56:33.039Z,47.25
2023-05-14T08:59:00.039Z,43.00
2023-05-14T09:01:27.140Z,42.00
2023-05-14T09:03:55.021Z,41.50
2023-05-14T09:06:22.834Z,41.50
2023-05-14T09:08:50.156Z,41.00
2023-05-14T09:11:17.018Z,41.00
2023-05-14T09:13:43.823Z,42.75
2023-05-14T09:16:10.666Z,42.00
2023-05-14T09:18:37.645Z,42.00
2023-05-14T09:21:04.886Z,41.75
2023-05-14T09:23:32.933Z,42.50
2023-05-14T09:26:04.738Z,50.00
2023-05-14T09:28:31.634Z,45.00
2023-05-14T09:30:58.513Z,44.50
2023-05-14T09:33:29.590Z,44.00
2023-05-14T09:35:59.218Z,42.00
2023-05-14T09:38:30.572Z,41.00
2023-05-14T09:40:58.728Z,40.50
2023-05-14T09:43:25.722Z,41.00
2023-05-14T09:45:53.386Z,43.75
2023-05-14T09:48:20.331Z,44.50
2023-05-14T09:50:47.359Z,44.00
2023-05-14T09:53:14.565Z,44.50
2023-05-14T09:55:41.514Z,44.00
2023-05-14T09:58:08.363Z,43.50
2023-05-14T10:00:36.021Z,45.00
2023-05-14T10:03:07.497Z,45.00
2023-05-14T10:05:36.532Z,44.00
2023-05-14T10:08:13.163Z,42.00
2023-05-14T10:10:40.717Z,42.00
2023-05-14T10:13:16.622Z,41.50
2023-05-14T10:16:06.944Z,45.50
2023-05-14T10:18:40.793Z,48.00
2023-05-14T10:21:08.767Z,46.00
2023-05-14T10:23:36.440Z,43.75
2023-05-14T10:26:04.104Z,42.00
2023-05-14T10:28:32.558Z,41.00
2023-05-14T10:31:00.586Z,41.00
2023-05-14T10:33:27.541Z,41.00
2023-05-14T10:36:05.789Z,44.00
2023-05-14T10:38:35.209Z,43.00
2023-05-14T10:41:10.067Z,42.50
2023-05-14T10:43:39.371Z,44.00
2023-05-14T10:46:07.581Z,43.00
2023-05-14T10:48:36.751Z,42.00
2023-05-14T10:51:03.720Z,44.00
2023-05-14T10:53:34.552Z,45.25
2023-05-14T10:56:14.489Z,45.00
2023-05-14T10:58:45.283Z,44.00
2023-05-14T11:01:13.523Z,44.25
2023-05-14T11:03:59.177Z,44.00
2023-05-14T11:06:27.472Z,43.00
2023-05-14T11:08:54.695Z,42.00
2023-05-14T11:11:22.014Z,44.50
2023-05-14T11:13:58.411Z,45.00
2023-05-14T11:16:28.257Z,44.00
2023-05-14T11:19:03.547Z,44.00
2023-05-14T11:21:31.352Z,44.00
2023-05-14T11:24:00.647Z,44.50
2023-05-14T11:26:27.672Z,44.00
2023-05-14T11:28:54.655Z,43.50
2023-05-14T11:31:22.454Z,44.00
2023-05-14T11:33:49.295Z,43.00
2023-05-14T11:36:16.277Z,44.25
2023-05-14T11:38:47.814Z,43.50
2023-05-14T11:41:14.994Z,44.00
2023-05-14T11:43:42.920Z,42.00
2023-05-14T11:46:28.331Z,43.00
2023-05-14T11:48:55.418Z,43.00
2023-05-14T11:51:40.949Z,43.00
2023-05-14T11:54:07.916Z,42.50
2023-05-14T11:56:34.946Z,43.00
2023-05-14T11:59:01.873Z,41.50
2023-05-14T12:01:28.799Z,42.00
2023-05-14T12:03:55.894Z,43.00
2023-05-14T12:06:31.362Z,42.50
2023-05-14T12:08:58.409Z,43.00
2023-05-14T12:11:25.304Z,41.25
2023-05-14T12:13:53.399Z,42.00
2023-05-14T12:16:21.062Z,43.00
2023-05-14T12:18:48.180Z,43.00
2023-05-14T12:21:15.151Z,43.00
2023-05-14T12:23:42.114Z,42.00
2023-05-14T12:26:09.417Z,41.50
2023-05-14T12:28:39.618Z,43.00
2023-05-14T12:31:06.672Z,43.00
2023-05-14T12:33:33.655Z,42.00
2023-05-14T12:36:07.337Z,41.00
2023-05-14T12:38:40.836Z,41.50
2023-05-14T12:41:07.708Z,42.00
2023-05-14T12:43:34.668Z,42.00
2023-05-14T12:46:01.702Z,42.00
2023-05-14T12:48:28.655Z,41.00
2023-05-14T12:50:55.582Z,42.50
2023-05-14T12:53:22.562Z,43.00
2023-05-14T12:55:49.488Z,41.00
2023-05-14T12:58:16.389Z,40.00
2023-05-14T13:00:43.375Z,41.00
2023-05-14T13:03:10.431Z,42.50
2023-05-14T13:05:37.842Z,42.50
2023-05-14T13:08:04.933Z,43.00
2023-05-14T13:10:31.785Z,43.25
2023-05-14T13:12:58.823Z,44.25
2023-05-14T13:15:25.896Z,44.00
2023-05-14T13:17:53.145Z,45.75
2023-05-14T13:20:20.419Z,44.00
2023-05-14T13:22:47.749Z,43.25
2023-05-14T13:25:14.735Z,42.00
2023-05-14T13:27:41.680Z,42.00
2023-05-14T13:30:08.927Z,41.00
2023-05-14T13:32:35.916Z,41.50
2023-05-14T13:35:02.812Z,43.00
2023-05-14T13:37:29.792Z,41.00
2023-05-14T13:39:56.688Z,40.00
2023-05-14T13:42:23.650Z,42.50
2023-05-14T13:44:50.572Z,40.75
2023-05-14T13:47:17.458Z,40.50
2023-05-14T13:49:44.498Z,41.00
2023-05-14T13:52:11.433Z,41.00
2023-05-14T13:54:38.387Z,40.00
2023-05-14T13:57:05.653Z,42.00
2023-05-14T13:59:32.663Z,42.00
2023-05-14T14:01:59.749Z,41.25
2023-05-14T14:04:26.736Z,40.00
2023-05-14T14:06:53.644Z,40.00
2023-05-14T14:09:20.624Z,41.00
2023-05-14T14:11:48.271Z,40.00
2023-05-14T14:14:15.397Z,39.50
2023-05-14T14:16:42.450Z,40.00
2023-05-14T14:19:09.932Z,41.00
2023-05-14T14:21:37.524Z,40.00
2023-05-14T14:24:04.614Z,39.25
2023-05-14T14:26:31.720Z,40.00
2023-05-14T14:29:01.923Z,39.50
2023-05-14T14:31:29.316Z,38.00
2023-05-14T14:33:56.233Z,41.00
2023-05-14T14:36:23.161Z,41.75
2023-05-14T14:38:50.007Z,40.00
2023-05-14T14:41:19.562Z,39.00
2023-05-14T14:43:46.447Z,40.00
2023-05-14T14:46:13.532Z,40.50
2023-05-14T14:48:41.735Z,40.00
2023-05-14T14:51:11.783Z,42.00
2023-05-14T14:53:38.822Z,40.75
2023-05-14T14:56:06.145Z,39.50
2023-05-14T14:58:33.038Z,40.00
2023-05-14T15:01:00.989Z,40.00
2023-05-14T15:03:28.297Z,40.00
2023-05-14T15:05:55.223Z,40.25
2023-05-14T15:08:27.200Z,42.25
2023-05-14T15:10:55.927Z,42.00
2023-05-14T15:13:25.384Z,40.00
2023-05-14T15:15:55.661Z,39.00
2023-05-14T15:18:22.819Z,39.00
2023-05-14T15:20:49.807Z,40.00
2023-05-14T15:23:16.667Z,39.50
2023-05-14T15:25:43.870Z,39.50
2023-05-14T15:28:11.065Z,40.50
2023-05-14T15:30:38.137Z,40.50
2023-05-14T15:33:07.760Z,41.00
2023-05-14T15:35:34.992Z,41.00
2023-05-14T15:38:02.200Z,41.50
2023-05-14T15:40:29.586Z,42.00
2023-05-14T15:42:56.481Z,41.25
2023-05-14T15:45:23.475Z,42.00
2023-05-14T15:47:53.579Z,43.00
2023-05-14T15:50:23.292Z,41.50
2023-05-14T15:52:50.437Z,40.00
2023-05-14T15:55:17.549Z,39.00
2023-05-14T15:57:44.566Z,39.00
2023-05-14T16:00:30.144Z,38.50
2023-05-14T16:03:00.530Z,38.00
2023-05-14T16:05:27.714Z,40.00
2023-05-14T16:08:01.369Z,39.75
2023-05-14T16:10:40.294Z,39.50
2023-05-14T16:13:08.153Z,40.00
2023-05-14T16:15:35.569Z,41.50
2023-05-14T16:18:05.279Z,42.00
2023-05-14T16:20:52.366Z,42.00
2023-05-14T16:23:25.476Z,40.50
2023-05-14T16:25:52.963Z,40.00
2023-05-14T16:28:20.595Z,39.00
2023-05-14T16:30:50.478Z,39.00
2023-05-14T16:33:17.681Z,38.00
2023-05-14T16:35:46.049Z,38.00
2023-05-14T16:38:13.153Z,38.00
2023-05-14T16:40:40.590Z,38.00
2023-05-14T16:43:29.166Z,39.00
2023-05-14T16:45:56.579Z,39.50
2023-05-14T16:48:26.874Z,40.00
2023-05-14T16:50:54.411Z,39.00
2023-05-14T16:53:21.424Z,39.00
2023-05-14T16:56:07.938Z,41.00
2023-05-14T16:58:35.468Z,40.00
2023-05-14T17:01:02.523Z,39.00
2023-05-14T17:03:49.049Z,39.00
2023-05-14T17:06:16.359Z,38.00
2023-05-14T17:08:43.410Z,38.00
2023-05-14T17:11:10.671Z,37.00
2023-05-14T17:13:37.791Z,37.25
2023-05-14T17:16:05.211Z,38.50
2023-05-14T17:18:50.683Z,38.50
2023-05-14T17:21:36.711Z,38.50
2023-05-14T17:24:04.058Z,39.00
2023-05-14T17:26:49.649Z,37.00
2023-05-14T17:29:16.952Z,38.50
2023-05-14T17:31:43.837Z,37.00
2023-05-14T17:34:11.005Z,36.25
2023-05-14T17:36:37.965Z,37.50
2023-05-14T17:39:05.027Z,38.00
2023-05-14T17:41:31.940Z,38.00
2023-05-14T17:43:58.892Z,38.00
2023-05-14T17:46:26.117Z,38.00
2023-05-14T17:48:53.203Z,38.00
2023-05-14T17:51:38.712Z,38.00
2023-05-14T17:54:05.800Z,37.00
2023-05-14T17:56:32.824Z,38.00
2023-05-14T17:59:00.660Z,37.50
2023-05-14T18:01:31.047Z,37.00
2023-05-14T18:03:58.349Z,36.50
2023-05-14T18:06:25.773Z,37.00
2023-05-14T18:08:53.790Z,37.00
2023-05-14T18:11:40.277Z,36.50
2023-05-14T18:14:26.402Z,39.00
2023-05-14T18:16:55.202Z,37.50
2023-05-14T18:19:26.091Z,37.00
2023-05-14T18:21:53.045Z,37.75
2023-05-14T18:24:19.953Z,38.00
2023-05-14T18:27:05.350Z,36.50
2023-05-14T18:29:32.434Z,36.25
2023-05-14T18:31:59.579Z,37.00
2023-05-14T18:34:26.619Z,37.00
2023-05-14T18:37:12.063Z,37.00
2023-05-14T18:39:39.353Z,38.25
2023-05-14T18:42:06.535Z,38.00
2023-05-14T18:44:33.606Z,39.00
2023-05-14T18:47:00.504Z,35.50
2023-05-14T18:49:45.854Z,36.50
2023-05-14T18:52:13.262Z,37.50
2023-05-14T18:54:40.072Z,38.00
2023-05-14T18:57:07.125Z,37.50
2023-05-14T18:59:52.938Z,38.00
2023-05-14T19:02:38.393Z,38.00
2023-05-14T19:05:05.812Z,38.00
2023-05-14T19:07:32.822Z,37.50
2023-05-14T19:09:59.820Z,38.00
2023-05-14T19:12:26.837Z,38.00
2023-05-14T19:14:53.768Z,37.00
2023-05-14T19:17:20.741Z,37.50
2023-05-14T19:19:47.786Z,37.00
2023-05-14T19:22:14.739Z,37.75
2023-05-14T19:24:41.759Z,37.00
2023-05-14T19:27:09.195Z,38.00
2023-05-14T19:29:36.918Z,36.50
2023-05-14T19:32:04.359Z,37.00
2023-05-14T19:34:31.348Z,36.00
2023-05-14T19:37:16.804Z,37.00
2023-05-14T19:39:44.180Z,37.00
2023-05-14T19:42:11.052Z,35.25
2023-05-14T19:44:38.051Z,36.00
2023-05-14T19:47:23.586Z,35.00
2023-05-14T19:50:09.585Z,35.00
2023-05-14T19:52:36.561Z,34.50
2023-05-14T19:55:03.624Z,34.00
2023-05-14T19:57:48.987Z,34.00
2023-05-14T20:00:16.272Z,33.50
2023-05-14T20:02:43.212Z,35.25
2023-05-14T20:05:10.559Z,35.50
2023-05-14T20:07:57.961Z,36.00
2023-05-14T20:10:26.205Z,36.00
2023-05-14T20:12:53.331Z,37.00
2023-05-14T20:15:20.286Z,34.50
2023-05-14T20:17:47.274Z,35.00
2023-05-14T20:20:14.288Z,36.00
2023-05-14T20:22:41.126Z,36.00
2023-05-14T20:25:08.537Z,35.00
2023-05-14T20:27:54.195Z,36.00
2023-05-14T20:30:21.212Z,35.00
2023-05-14T20:32:48.154Z,35.00
2023-05-14T20:35:15.237Z,34.00
2023-05-14T20:37:42.164Z,34.75
2023-05-14T20:40:09.692Z,34.50
2023-05-14T20:42:36.721Z,35.00
2023-05-14T20:45:03.931Z,35.00
2023-05-14T20:47:31.058Z,36.00
2023-05-14T20:49:58.124Z,33.25
2023-05-14T20:52:25.062Z,35.00
2023-05-14T20:54:52.386Z,34.00
2023-05-14T20:57:19.893Z,33.00
2023-05-14T20:59:46.967Z,34.00
2023-05-14T21:02:14.071Z,33.50
2023-05-14T21:04:41.312Z,34.00
2023-05-14T21:07:08.282Z,33.50
2023-05-14T21:09:35.365Z,34.00
2023-05-14T21:12:02.236Z,35.00
2023-05-14T21:14:29.181Z,34.50
2023-05-14T21:16:56.061Z,35.00
2023-05-14T21:19:23.390Z,34.50
2023-05-14T21:21:50.448Z,34.75
2023-05-14T21:24:17.418Z,36.00
2023-05-14T21:26:44.451Z,35.00
2023-05-14T21:29:11.507Z,34.00
2023-05-14T21:31:38.524Z,35.00
2023-05-14T21:34:05.413Z,34.50
2023-05-14T21:36:32.428Z,34.00
2023-05-14T21:38:59.298Z,35.00
2023-05-14T21:41:26.440Z,34.00
2023-05-14T21:43:53.337Z,33.50
2023-05-14T21:46:20.265Z,33.75
2023-05-14T21:48:47.278Z,34.25
2023-05-14T21:51:14.388Z,35.00
2023-05-14T21:53:41.214Z,35.00
2023-05-14T21:56:08.113Z,33.00
2023-05-14T21:58:35.850Z,33.00
2023-05-14T22:01:02.828Z,32.50
2023-05-14T22:03:30.049Z,34.25
2023-05-14T22:05:57.532Z,34.50
2023-05-14T22:08:24.432Z,35.00
2023-05-14T22:10:51.222Z,35.00
2023-05-14T22:13:18.366Z,35.00
2023-05-14T22:15:45.298Z,34.50
2023-05-14T22:18:12.257Z,35.00
2023-05-14T22:20:39.208Z,34.50
2023-05-14T22:23:06.091Z,34.50
2023-05-14T22:25:33.073Z,33.50
2023-05-14T22:27:59.996Z,34.00
2023-05-14T22:30:26.918Z,33.00
2023-05-14T22:32:53.736Z,33.00
2023-05-14T22:35:20.783Z,34.00
2023-05-14T22:37:47.600Z,34.50
2023-05-14T22:40:14.452Z,34.00
2023-05-14T22:42:41.399Z,33.50
2023-05-14T22:45:09.140Z,33.50
2023-05-14T22:47:36.032Z,33.00
2023-05-14T22:50:02.955Z,32.50
2023-05-14T22:52:29.830Z,32.50
2023-05-14T22:54:56.696Z,33.00
2023-05-14T22:57:23.773Z,34.00
2023-05-14T22:59:50.698Z,34.00
2023-05-14T23:02:17.601Z,31.75
2023-05-14T23:04:44.593Z,33.00
2023-05-14T23:07:11.552Z,34.00
2023-05-14T23:09:38.442Z,34.00
2023-05-14T23:12:05.649Z,33.00
2023-05-14T23:14:32.571Z,32.50
2023-05-14T23:16:59.707Z,33.00
2023-05-14T23:19:26.589Z,33.00
2023-05-14T23:21:58.013Z,32.00
2023-05-14T23:24:27.250Z,32.00
2023-05-14T23:26:54.229Z,33.00
2023-05-14T23:29:21.284Z,33.00
2023-05-14T23:31:48.314Z,33.50
2023-05-14T23:34:15.199Z,32.50
2023-05-14T23:36:42.076Z,33.00
2023-05-14T23:39:09.181Z,33.25
2023-05-14T23:41:36.100Z,32.50
2023-05-14T23:44:03.569Z,33.00
2023-05-14T23:46:30.612Z,33.00
2023-05-14T23:48:57.647Z,34.00
2023-05-14T23:51:24.832Z,32.00
2023-05-14T23:53:51.760Z,31.75
2023-05-14T23:56:18.672Z,33.00
2023-05-14T23:58:45.507Z,33.00
